RYR78PV LMML-LIRF
Flight info
| Callsign | RYR78PV |
|---|---|
| Flight time | 1h 7m |
| Altitude | 38000 |
| Route | GZO M622 SOPIR DCT MABOX DCT ADEXI DCT GIANO DCT TURMO DCT ESINO |
| Aircraft | B38M/M-SDE1FGHILORVWXY/HB1 |
Departure
| Time | 2026-05-01 09:51 |
|---|---|
| Airport | Malta International Airport (LMML) |
Arrival
| Time | 2026-05-01 10:59 |
|---|---|
| Airport | Rome–Fiumicino Leonardo da Vinci International Airport (LIRF) |
| Time | Latitude | Longitude | Altitude | Speed | Heading |
|---|---|---|---|---|---|
| 2026-05-01 09:23 | 35.84805 | 14.49514 | 261 ft | 0 kts | 359° |
| 2026-05-01 09:38 | 35.84804 | 14.49514 | 238 ft | 2 kts | 360° |
| 2026-05-01 09:39 | 35.84753 | 14.49525 | 262 ft | 4 kts | 340° |
| 2026-05-01 09:39 | 35.84746 | 14.49528 | 263 ft | 1 kts | 340° |
| 2026-05-01 09:43 | 35.84786 | 14.49450 | 261 ft | 12 kts | 311° |
| 2026-05-01 09:43 | 35.84853 | 14.49368 | 262 ft | 15 kts | 315° |
| 2026-05-01 09:43 | 35.84926 | 14.49267 | 262 ft | 17 kts | 296° |
| 2026-05-01 09:44 | 35.84914 | 14.49086 | 261 ft | 12 kts | 308° |
| 2026-05-01 09:44 | 35.84967 | 14.48990 | 261 ft | 14 kts | 296° |
| 2026-05-01 09:44 | 35.85000 | 14.48863 | 261 ft | 17 kts | 285° |
| 2026-05-01 09:45 | 35.85029 | 14.48728 | 266 ft | 16 kts | 285° |
| 2026-05-01 09:45 | 35.85173 | 14.48462 | 275 ft | 27 kts | 314° |
| 2026-05-01 09:45 | 35.85328 | 14.48268 | 275 ft | 35 kts | 315° |
| 2026-05-01 09:46 | 35.85505 | 14.48049 | 275 ft | 37 kts | 315° |
| 2026-05-01 09:46 | 35.85665 | 14.47850 | 275 ft | 23 kts | 315° |
| 2026-05-01 09:46 | 35.85770 | 14.47730 | 275 ft | 21 kts | 318° |
| 2026-05-01 09:46 | 35.85850 | 14.47624 | 275 ft | 11 kts | 287° |
| 2026-05-01 09:47 | 35.85822 | 14.47527 | 275 ft | 15 kts | 236° |
| 2026-05-01 09:47 | 35.85737 | 14.47386 | 275 ft | 25 kts | 233° |
| 2026-05-01 09:47 | 35.85657 | 14.47261 | 275 ft | 11 kts | 212° |
| 2026-05-01 09:47 | 35.85593 | 14.47209 | 275 ft | 13 kts | 232° |
| 2026-05-01 09:48 | 35.85529 | 14.47104 | 283 ft | 19 kts | 233° |
| 2026-05-01 09:48 | 35.85438 | 14.46954 | 292 ft | 24 kts | 237° |
| 2026-05-01 09:48 | 35.85369 | 14.46778 | 302 ft | 22 kts | 234° |
| 2026-05-01 09:48 | 35.85284 | 14.46634 | 309 ft | 20 kts | 234° |
| 2026-05-01 09:49 | 35.85208 | 14.46504 | 312 ft | 19 kts | 234° |
| 2026-05-01 09:49 | 35.85128 | 14.46366 | 312 ft | 21 kts | 234° |
| 2026-05-01 09:49 | 35.85039 | 14.46214 | 312 ft | 23 kts | 234° |
| 2026-05-01 09:49 | 35.84946 | 14.46053 | 312 ft | 22 kts | 234° |
| 2026-05-01 09:50 | 35.84860 | 14.45961 | 311 ft | 11 kts | 192° |
| 2026-05-01 09:50 | 35.84781 | 14.45988 | 312 ft | 12 kts | 147° |
| 2026-05-01 09:50 | 35.84759 | 14.46036 | 311 ft | 5 kts | 71° |
| 2026-05-01 09:50 | 35.84765 | 14.46053 | 311 ft | 0 kts | 57° |
| 2026-05-01 09:51 | 35.84840 | 14.46183 | 313 ft | 54 kts | 54° |
| 2026-05-01 09:51 | 35.85213 | 14.46822 | 301 ft | 127 kts | 54° |
| 2026-05-01 09:51 | 35.85825 | 14.47886 | 529 ft | 165 kts | 56° |
| 2026-05-01 09:51 | 35.86486 | 14.49084 | 1329 ft | 172 kts | 56° |
| 2026-05-01 09:52 | 35.87185 | 14.50323 | 2089 ft | 186 kts | 55° |
| 2026-05-01 09:52 | 35.87991 | 14.51744 | 2378 ft | 221 kts | 55° |
| 2026-05-01 09:52 | 35.88895 | 14.53326 | 3220 ft | 233 kts | 54° |
| 2026-05-01 09:52 | 35.89851 | 14.55002 | 4029 ft | 245 kts | 53° |
| 2026-05-01 09:53 | 35.90869 | 14.56772 | 4763 ft | 261 kts | 49° |
| 2026-05-01 09:53 | 35.92202 | 14.58309 | 5536 ft | 270 kts | 27° |
| 2026-05-01 09:53 | 35.93956 | 14.58988 | 6555 ft | 267 kts | 2° |
| 2026-05-01 09:53 | 35.95775 | 14.58655 | 7428 ft | 266 kts | 333° |
| 2026-05-01 09:54 | 35.97171 | 14.57207 | 8416 ft | 266 kts | 305° |
| 2026-05-01 09:54 | 35.98238 | 14.55368 | 9348 ft | 269 kts | 311° |
| 2026-05-01 09:54 | 35.99409 | 14.53572 | 10299 ft | 271 kts | 298° |
| 2026-05-01 09:54 | 35.99948 | 14.51286 | 10839 ft | 289 kts | 279° |
| 2026-05-01 09:55 | 36.00253 | 14.48746 | 11240 ft | 309 kts | 280° |
| 2026-05-01 09:55 | 36.00593 | 14.46064 | 11769 ft | 323 kts | 280° |
| 2026-05-01 09:55 | 36.00936 | 14.43309 | 12601 ft | 325 kts | 280° |
| 2026-05-01 09:55 | 36.01279 | 14.40541 | 13478 ft | 328 kts | 280° |
| 2026-05-01 09:56 | 36.01625 | 14.37743 | 14281 ft | 331 kts | 280° |
| 2026-05-01 09:56 | 36.01973 | 14.34918 | 15050 ft | 334 kts | 280° |
| 2026-05-01 09:56 | 36.02319 | 14.32105 | 15784 ft | 338 kts | 280° |
| 2026-05-01 09:56 | 36.02673 | 14.29217 | 16509 ft | 342 kts | 280° |
| 2026-05-01 09:57 | 36.03029 | 14.26305 | 17235 ft | 345 kts | 280° |
| 2026-05-01 09:57 | 36.03453 | 14.23375 | 17930 ft | 348 kts | 287° |
| 2026-05-01 09:57 | 36.04517 | 14.20696 | 18579 ft | 351 kts | 306° |
| 2026-05-01 09:57 | 36.06253 | 14.18553 | 19206 ft | 357 kts | 320° |
| 2026-05-01 09:58 | 36.08233 | 14.16689 | 19812 ft | 360 kts | 320° |
| 2026-05-01 09:58 | 36.10250 | 14.14837 | 20422 ft | 362 kts | 321° |
| 2026-05-01 09:58 | 36.12265 | 14.13015 | 21023 ft | 365 kts | 321° |
| 2026-05-01 09:58 | 36.14329 | 14.11166 | 21614 ft | 368 kts | 321° |
| 2026-05-01 09:59 | 36.16414 | 14.09310 | 22218 ft | 370 kts | 321° |
| 2026-05-01 09:59 | 36.18513 | 14.07445 | 22807 ft | 373 kts | 321° |
| 2026-05-01 09:59 | 36.20622 | 14.05571 | 23372 ft | 376 kts | 321° |
| 2026-05-01 09:59 | 36.22752 | 14.03679 | 23884 ft | 379 kts | 321° |
| 2026-05-01 10:00 | 36.24902 | 14.01768 | 24342 ft | 381 kts | 321° |
| 2026-05-01 10:00 | 36.27062 | 13.99846 | 24766 ft | 383 kts | 321° |
| 2026-05-01 10:00 | 36.29235 | 13.97912 | 25149 ft | 386 kts | 321° |
| 2026-05-01 10:00 | 36.31419 | 13.95967 | 25548 ft | 388 kts | 321° |
| 2026-05-01 10:01 | 36.33615 | 13.94009 | 25929 ft | 390 kts | 321° |
| 2026-05-01 10:01 | 36.35823 | 13.92040 | 26303 ft | 392 kts | 321° |
| 2026-05-01 10:01 | 36.38044 | 13.90057 | 26674 ft | 394 kts | 321° |
| 2026-05-01 10:01 | 36.40272 | 13.88067 | 27045 ft | 396 kts | 321° |
| 2026-05-01 10:02 | 36.42485 | 13.86089 | 27416 ft | 398 kts | 321° |
| 2026-05-01 10:02 | 36.44738 | 13.84073 | 27769 ft | 400 kts | 320° |
| 2026-05-01 10:02 | 36.47001 | 13.82048 | 28104 ft | 402 kts | 320° |
| 2026-05-01 10:02 | 36.49279 | 13.80008 | 28445 ft | 404 kts | 320° |
| 2026-05-01 10:03 | 36.51567 | 13.77957 | 28770 ft | 406 kts | 320° |
| 2026-05-01 10:03 | 36.53865 | 13.75895 | 29103 ft | 408 kts | 320° |
| 2026-05-01 10:03 | 36.56175 | 13.73821 | 29417 ft | 410 kts | 320° |
| 2026-05-01 10:03 | 36.58493 | 13.71739 | 29724 ft | 412 kts | 320° |
| 2026-05-01 10:04 | 36.60795 | 13.69670 | 30023 ft | 414 kts | 320° |
| 2026-05-01 10:04 | 36.63129 | 13.67571 | 30284 ft | 416 kts | 320° |
| 2026-05-01 10:04 | 36.65482 | 13.65451 | 30536 ft | 418 kts | 320° |
| 2026-05-01 10:04 | 36.67842 | 13.63326 | 30784 ft | 420 kts | 320° |
| 2026-05-01 10:05 | 36.70211 | 13.61189 | 31039 ft | 421 kts | 320° |
| 2026-05-01 10:05 | 36.72589 | 13.59044 | 31284 ft | 423 kts | 320° |
| 2026-05-01 10:05 | 36.74970 | 13.56893 | 31519 ft | 424 kts | 320° |
| 2026-05-01 10:05 | 36.77361 | 13.54732 | 31797 ft | 424 kts | 320° |
| 2026-05-01 10:06 | 36.79748 | 13.52573 | 32128 ft | 423 kts | 320° |
| 2026-05-01 10:06 | 36.82129 | 13.50417 | 32439 ft | 422 kts | 320° |
| 2026-05-01 10:06 | 36.84472 | 13.48294 | 32758 ft | 422 kts | 320° |
| 2026-05-01 10:06 | 36.86845 | 13.46143 | 33049 ft | 421 kts | 320° |
| 2026-05-01 10:07 | 36.89214 | 13.43993 | 33355 ft | 421 kts | 320° |
| 2026-05-01 10:07 | 36.91579 | 13.41845 | 33647 ft | 420 kts | 320° |
| 2026-05-01 10:07 | 36.93938 | 13.39702 | 33951 ft | 419 kts | 320° |
| 2026-05-01 10:07 | 36.96295 | 13.37558 | 34236 ft | 418 kts | 320° |
| 2026-05-01 10:08 | 37.00984 | 13.33288 | 34751 ft | 416 kts | 320° |
| 2026-05-01 10:08 | 37.03289 | 13.31187 | 34986 ft | 415 kts | 320° |
| 2026-05-01 10:08 | 37.05620 | 13.29060 | 35221 ft | 414 kts | 320° |
| 2026-05-01 10:09 | 37.07948 | 13.26934 | 35449 ft | 414 kts | 320° |
| 2026-05-01 10:09 | 37.10270 | 13.24813 | 35675 ft | 413 kts | 320° |
| 2026-05-01 10:09 | 37.12589 | 13.22693 | 35893 ft | 412 kts | 320° |
| 2026-05-01 10:09 | 37.14905 | 13.20574 | 36105 ft | 412 kts | 319° |
| 2026-05-01 10:10 | 37.17214 | 13.18459 | 36312 ft | 411 kts | 319° |
| 2026-05-01 10:10 | 37.19520 | 13.16345 | 36507 ft | 410 kts | 319° |
| 2026-05-01 10:10 | 37.24111 | 13.12133 | 36962 ft | 408 kts | 319° |
| 2026-05-01 10:11 | 37.26398 | 13.10033 | 37161 ft | 407 kts | 319° |
| 2026-05-01 10:11 | 37.28679 | 13.07937 | 37336 ft | 406 kts | 319° |
| 2026-05-01 10:11 | 37.30927 | 13.05869 | 37489 ft | 406 kts | 319° |
| 2026-05-01 10:11 | 37.33214 | 13.03788 | 37646 ft | 407 kts | 322° |
| 2026-05-01 10:12 | 37.35788 | 13.02254 | 37819 ft | 415 kts | 336° |
| 2026-05-01 10:12 | 37.37614 | 13.01541 | 37942 ft | 414 kts | 336° |
| 2026-05-01 10:13 | 37.46821 | 12.97976 | 38042 ft | 415 kts | 337° |
| 2026-05-01 10:13 | 37.52317 | 12.95921 | 38033 ft | 413 kts | 337° |
| 2026-05-01 10:14 | 37.60574 | 12.92838 | 38040 ft | 413 kts | 337° |
| 2026-05-01 10:14 | 37.66081 | 12.90777 | 38042 ft | 413 kts | 337° |
| 2026-05-01 10:15 | 37.71576 | 12.88719 | 38048 ft | 412 kts | 337° |
| 2026-05-01 10:15 | 37.77039 | 12.86669 | 38040 ft | 412 kts | 337° |
| 2026-05-01 10:16 | 37.82541 | 12.84601 | 38037 ft | 413 kts | 337° |
| 2026-05-01 10:17 | 37.90799 | 12.81491 | 38039 ft | 413 kts | 337° |
| 2026-05-01 10:17 | 37.99010 | 12.78393 | 38051 ft | 411 kts | 337° |
| 2026-05-01 10:18 | 38.07220 | 12.75286 | 38064 ft | 412 kts | 337° |
| 2026-05-01 10:19 | 38.12721 | 12.73201 | 38051 ft | 412 kts | 337° |
| 2026-05-01 10:19 | 38.18222 | 12.71112 | 38051 ft | 412 kts | 337° |
| 2026-05-01 10:20 | 38.26417 | 12.67995 | 38058 ft | 411 kts | 336° |
| 2026-05-01 10:20 | 38.31897 | 12.65906 | 38062 ft | 411 kts | 336° |
| 2026-05-01 10:21 | 38.40117 | 12.62767 | 38067 ft | 411 kts | 336° |
| 2026-05-01 10:22 | 38.48292 | 12.59637 | 38072 ft | 409 kts | 336° |
| 2026-05-01 10:23 | 38.56469 | 12.56500 | 38081 ft | 409 kts | 336° |
| 2026-05-01 10:23 | 38.64645 | 12.53355 | 38089 ft | 409 kts | 336° |
| 2026-05-01 10:24 | 38.75492 | 12.49171 | 38104 ft | 408 kts | 336° |
| 2026-05-01 10:25 | 38.86356 | 12.44984 | 38096 ft | 409 kts | 339° |
| 2026-05-01 10:26 | 38.91901 | 12.43369 | 38137 ft | 412 kts | 339° |
| 2026-05-01 10:27 | 39.03027 | 12.40033 | 38098 ft | 411 kts | 339° |
| 2026-05-01 10:28 | 39.11392 | 12.37506 | 38117 ft | 412 kts | 339° |
| 2026-05-01 10:28 | 39.19751 | 12.34975 | 38114 ft | 411 kts | 339° |
| 2026-05-01 10:29 | 39.28102 | 12.32441 | 38115 ft | 411 kts | 339° |
| 2026-05-01 10:30 | 39.39200 | 12.29063 | 38152 ft | 411 kts | 339° |
| 2026-05-01 10:31 | 39.50315 | 12.25669 | 38117 ft | 410 kts | 339° |
| 2026-05-01 10:32 | 39.58651 | 12.23116 | 38127 ft | 410 kts | 339° |
| 2026-05-01 10:33 | 39.69720 | 12.19717 | 38123 ft | 410 kts | 339° |
| 2026-05-01 10:34 | 39.78046 | 12.17153 | 38127 ft | 410 kts | 339° |
| 2026-05-01 10:34 | 39.82656 | 12.15730 | 38125 ft | 410 kts | 339° |
| 2026-05-01 10:35 | 39.90969 | 12.13159 | 38127 ft | 409 kts | 339° |
| 2026-05-01 10:35 | 39.97401 | 12.11166 | 37478 ft | 408 kts | 339° |
| 2026-05-01 10:36 | 40.01991 | 12.09741 | 36656 ft | 400 kts | 339° |
| 2026-05-01 10:36 | 40.04641 | 12.08918 | 36201 ft | 395 kts | 338° |
| 2026-05-01 10:36 | 40.07306 | 12.08089 | 35555 ft | 393 kts | 338° |
| 2026-05-01 10:37 | 40.09988 | 12.07254 | 34748 ft | 398 kts | 338° |
| 2026-05-01 10:37 | 40.15432 | 12.05558 | 33035 ft | 406 kts | 338° |
| 2026-05-01 10:37 | 40.18185 | 12.04700 | 32232 ft | 407 kts | 339° |
| 2026-05-01 10:38 | 40.20946 | 12.03838 | 31432 ft | 409 kts | 339° |
| 2026-05-01 10:38 | 40.23714 | 12.02973 | 30618 ft | 412 kts | 339° |
| 2026-05-01 10:38 | 40.26486 | 12.02105 | 29651 ft | 418 kts | 339° |
| 2026-05-01 10:38 | 40.29330 | 12.01215 | 28751 ft | 423 kts | 340° |
| 2026-05-01 10:39 | 40.32206 | 12.00314 | 28076 ft | 426 kts | 340° |
| 2026-05-01 10:39 | 40.35100 | 11.99407 | 27396 ft | 428 kts | 340° |
| 2026-05-01 10:39 | 40.37989 | 11.98500 | 26727 ft | 426 kts | 340° |
| 2026-05-01 10:39 | 40.40853 | 11.97600 | 26059 ft | 421 kts | 340° |
| 2026-05-01 10:40 | 40.43686 | 11.96710 | 25403 ft | 417 kts | 340° |
| 2026-05-01 10:40 | 40.46501 | 11.95824 | 24751 ft | 415 kts | 341° |
| 2026-05-01 10:40 | 40.49302 | 11.94942 | 24097 ft | 413 kts | 341° |
| 2026-05-01 10:40 | 40.52090 | 11.94062 | 23418 ft | 411 kts | 341° |
| 2026-05-01 10:41 | 40.54825 | 11.93200 | 22702 ft | 408 kts | 341° |
| 2026-05-01 10:41 | 40.57572 | 11.92333 | 22049 ft | 404 kts | 341° |
| 2026-05-01 10:41 | 40.62994 | 11.90618 | 20799 ft | 397 kts | 342° |
| 2026-05-01 10:42 | 40.65668 | 11.89772 | 20187 ft | 394 kts | 342° |
| 2026-05-01 10:42 | 40.68323 | 11.88931 | 19578 ft | 391 kts | 342° |
| 2026-05-01 10:42 | 40.70966 | 11.88093 | 18975 ft | 389 kts | 343° |
| 2026-05-01 10:42 | 40.73592 | 11.87261 | 18369 ft | 387 kts | 343° |
| 2026-05-01 10:43 | 40.76207 | 11.86430 | 17692 ft | 385 kts | 343° |
| 2026-05-01 10:43 | 40.78765 | 11.85616 | 17108 ft | 382 kts | 343° |
| 2026-05-01 10:43 | 40.81338 | 11.84798 | 16520 ft | 378 kts | 343° |
| 2026-05-01 10:43 | 40.83905 | 11.84075 | 15848 ft | 379 kts | 351° |
| 2026-05-01 10:44 | 40.86555 | 11.84287 | 15229 ft | 386 kts | 9° |
| 2026-05-01 10:44 | 40.89059 | 11.85590 | 14683 ft | 390 kts | 25° |
| 2026-05-01 10:44 | 40.91418 | 11.87332 | 14138 ft | 387 kts | 25° |
| 2026-05-01 10:44 | 40.93762 | 11.89077 | 13539 ft | 386 kts | 25° |
| 2026-05-01 10:45 | 40.96086 | 11.90826 | 12960 ft | 383 kts | 26° |
| 2026-05-01 10:45 | 40.98389 | 11.92566 | 12409 ft | 380 kts | 26° |
| 2026-05-01 10:45 | 41.00640 | 11.94272 | 11898 ft | 376 kts | 26° |
| 2026-05-01 10:45 | 41.02879 | 11.95970 | 11651 ft | 365 kts | 26° |
| 2026-05-01 10:46 | 41.05036 | 11.97608 | 11460 ft | 341 kts | 26° |
| 2026-05-01 10:46 | 41.06999 | 11.99100 | 11298 ft | 319 kts | 26° |
| 2026-05-01 10:46 | 41.08864 | 12.00518 | 11145 ft | 300 kts | 26° |
| 2026-05-01 10:46 | 41.10620 | 12.01854 | 10979 ft | 282 kts | 26° |
| 2026-05-01 10:47 | 41.12272 | 12.03112 | 10837 ft | 266 kts | 26° |
| 2026-05-01 10:47 | 41.13848 | 12.04313 | 10701 ft | 258 kts | 26° |
| 2026-05-01 10:47 | 41.15416 | 12.05506 | 10589 ft | 265 kts | 26° |
| 2026-05-01 10:47 | 41.17029 | 12.06738 | 10457 ft | 271 kts | 26° |
| 2026-05-01 10:48 | 41.18647 | 12.07973 | 10318 ft | 273 kts | 26° |
| 2026-05-01 10:48 | 41.20291 | 12.09228 | 10170 ft | 273 kts | 26° |
| 2026-05-01 10:48 | 41.21938 | 12.10487 | 9883 ft | 274 kts | 27° |
| 2026-05-01 10:48 | 41.23589 | 12.11749 | 9544 ft | 274 kts | 27° |
| 2026-05-01 10:49 | 41.25234 | 12.13008 | 9232 ft | 272 kts | 27° |
| 2026-05-01 10:49 | 41.26865 | 12.14256 | 8933 ft | 269 kts | 27° |
| 2026-05-01 10:49 | 41.28483 | 12.15495 | 8638 ft | 267 kts | 27° |
| 2026-05-01 10:49 | 41.30086 | 12.16719 | 8350 ft | 264 kts | 26° |
| 2026-05-01 10:50 | 41.31747 | 12.17698 | 8134 ft | 258 kts | 20° |
| 2026-05-01 10:50 | 41.33376 | 12.18600 | 8020 ft | 249 kts | 21° |
| 2026-05-01 10:50 | 41.34925 | 12.19471 | 7947 ft | 243 kts | 21° |
| 2026-05-01 10:50 | 41.36521 | 12.20377 | 7657 ft | 255 kts | 21° |
| 2026-05-01 10:51 | 41.38177 | 12.21326 | 7222 ft | 262 kts | 22° |
| 2026-05-01 10:51 | 41.39857 | 12.22293 | 6863 ft | 263 kts | 22° |
| 2026-05-01 10:51 | 41.41535 | 12.23263 | 6550 ft | 263 kts | 22° |
| 2026-05-01 10:51 | 41.43209 | 12.24232 | 6227 ft | 262 kts | 22° |
| 2026-05-01 10:52 | 41.44878 | 12.25198 | 5900 ft | 261 kts | 22° |
| 2026-05-01 10:52 | 41.46548 | 12.26165 | 5503 ft | 263 kts | 23° |
| 2026-05-01 10:52 | 41.48229 | 12.27140 | 5136 ft | 263 kts | 23° |
| 2026-05-01 10:52 | 41.49869 | 12.28091 | 4803 ft | 258 kts | 23° |
| 2026-05-01 10:53 | 41.51503 | 12.29039 | 4527 ft | 253 kts | 23° |
| 2026-05-01 10:53 | 41.53107 | 12.29971 | 4225 ft | 250 kts | 23° |
| 2026-05-01 10:53 | 41.54698 | 12.30896 | 4026 ft | 249 kts | 24° |
| 2026-05-01 10:53 | 41.56282 | 12.31817 | 3896 ft | 248 kts | 24° |
| 2026-05-01 10:54 | 41.57858 | 12.32733 | 3771 ft | 247 kts | 24° |
| 2026-05-01 10:54 | 41.59475 | 12.33674 | 3612 ft | 247 kts | 24° |
| 2026-05-01 10:54 | 41.61056 | 12.34594 | 3471 ft | 247 kts | 23° |
| 2026-05-01 10:54 | 41.62720 | 12.35064 | 3281 ft | 244 kts | 360° |
| 2026-05-01 10:55 | 41.64321 | 12.34670 | 3083 ft | 230 kts | 343° |
| 2026-05-01 10:55 | 41.65775 | 12.34008 | 2889 ft | 212 kts | 342° |
| 2026-05-01 10:55 | 41.67106 | 12.33436 | 2719 ft | 191 kts | 343° |
| 2026-05-01 10:55 | 41.68331 | 12.32929 | 2473 ft | 179 kts | 343° |
| 2026-05-01 10:56 | 41.69518 | 12.32436 | 2327 ft | 179 kts | 343° |
| 2026-05-01 10:56 | 41.70679 | 12.31954 | 2130 ft | 170 kts | 343° |
| 2026-05-01 10:56 | 41.71791 | 12.31492 | 1938 ft | 166 kts | 343° |
| 2026-05-01 10:56 | 41.72861 | 12.31047 | 1731 ft | 156 kts | 343° |
| 2026-05-01 10:57 | 41.73879 | 12.30623 | 1533 ft | 151 kts | 343° |
| 2026-05-01 10:57 | 41.74878 | 12.30206 | 1322 ft | 150 kts | 343° |
| 2026-05-01 10:57 | 41.75868 | 12.29794 | 1124 ft | 148 kts | 345° |
| 2026-05-01 10:57 | 41.76848 | 12.29385 | 936 ft | 147 kts | 344° |
| 2026-05-01 10:58 | 41.77816 | 12.28980 | 735 ft | 148 kts | 344° |
| 2026-05-01 10:58 | 41.78795 | 12.28561 | 560 ft | 148 kts | 344° |
| 2026-05-01 10:58 | 41.79771 | 12.28162 | 360 ft | 145 kts | 346° |
| 2026-05-01 10:58 | 41.80734 | 12.27763 | 181 ft | 142 kts | 345° |
| 2026-05-01 10:59 | 41.81666 | 12.27375 | 20 ft | 133 kts | 345° |
| 2026-05-01 10:59 | 41.82374 | 12.27083 | 12 ft | 73 kts | 342° |
| 2026-05-01 10:59 | 41.82787 | 12.26911 | 16 ft | 49 kts | 342° |
| 2026-05-01 10:59 | 41.83034 | 12.26769 | 14 ft | 36 kts | 329° |
| 2026-05-01 11:00 | 41.83185 | 12.26587 | 13 ft | 18 kts | 311° |
| 2026-05-01 11:00 | 41.83243 | 12.26464 | 15 ft | 15 kts | 262° |
| 2026-05-01 11:00 | 41.83160 | 12.26427 | 14 ft | 17 kts | 161° |
| 2026-05-01 11:00 | 41.83024 | 12.26487 | 14 ft | 24 kts | 162° |
| 2026-05-01 11:01 | 41.82841 | 12.26563 | 14 ft | 30 kts | 162° |
| 2026-05-01 11:01 | 41.82633 | 12.26650 | 13 ft | 32 kts | 163° |
| 2026-05-01 11:01 | 41.82414 | 12.26741 | 13 ft | 34 kts | 163° |
| 2026-05-01 11:01 | 41.82186 | 12.26837 | 15 ft | 35 kts | 162° |
| 2026-05-01 11:02 | 41.81949 | 12.26936 | 13 ft | 35 kts | 163° |
| 2026-05-01 11:02 | 41.81716 | 12.27033 | 14 ft | 36 kts | 162° |
| 2026-05-01 11:02 | 41.81474 | 12.27134 | 14 ft | 37 kts | 162° |
| 2026-05-01 11:02 | 41.81226 | 12.27238 | 14 ft | 38 kts | 162° |
| 2026-05-01 11:03 | 41.80993 | 12.27336 | 15 ft | 31 kts | 163° |
| 2026-05-01 11:03 | 41.80792 | 12.27324 | 15 ft | 28 kts | 189° |
| 2026-05-01 11:03 | 41.80651 | 12.27203 | 15 ft | 26 kts | 248° |
| 2026-05-01 11:03 | 41.80585 | 12.26966 | 17 ft | 28 kts | 250° |
| 2026-05-01 11:04 | 41.80516 | 12.26714 | 18 ft | 29 kts | 250° |
| 2026-05-01 11:04 | 41.80443 | 12.26452 | 20 ft | 29 kts | 250° |
| 2026-05-01 11:04 | 41.80385 | 12.26240 | 18 ft | 17 kts | 250° |
| 2026-05-01 11:04 | 41.80330 | 12.26110 | 17 ft | 18 kts | 217° |
| 2026-05-01 11:05 | 41.80212 | 12.26032 | 16 ft | 20 kts | 205° |
| 2026-05-01 11:05 | 41.80077 | 12.25948 | 16 ft | 22 kts | 204° |
| 2026-05-01 11:05 | 41.79948 | 12.25869 | 16 ft | 15 kts | 204° |
| 2026-05-01 11:05 | 41.79864 | 12.25825 | 16 ft | 9 kts | 170° |
| 2026-05-01 11:06 | 41.79803 | 12.25822 | 16 ft | 10 kts | 201° |
| 2026-05-01 11:06 | 41.79729 | 12.25776 | 17 ft | 13 kts | 205° |
| 2026-05-01 11:06 | 41.79642 | 12.25721 | 16 ft | 12 kts | 205° |
| 2026-05-01 11:07 | 41.79602 | 12.25743 | 16 ft | 3 kts | 115° |
| 2026-05-01 11:07 | 41.79593 | 12.25769 | 18 ft | 1 kts | 115° |